createdAt,value
2019-05-19T00:03:16.323Z,55.68
2019-05-19T00:07:22.036Z,55.93
2019-05-19T00:11:27.700Z,55.29
2019-05-19T00:15:33.385Z,54.59
2019-05-19T00:19:39.079Z,54.38
2019-05-19T00:23:44.774Z,54.27
2019-05-19T00:27:50.650Z,54.22
2019-05-19T00:31:56.367Z,54.33
2019-05-19T00:36:02.160Z,54.80
2019-05-19T00:40:09.035Z,54.46
2019-05-19T00:44:14.780Z,54.41
2019-05-19T00:48:21.522Z,54.29
2019-05-19T00:52:27.205Z,54.25
2019-05-19T00:56:33.506Z,54.63
2019-05-19T01:00:39.360Z,54.85
2019-05-19T01:04:45.049Z,54.65
2019-05-19T01:08:50.788Z,55.53
2019-05-19T01:12:56.472Z,55.59
2019-05-19T01:17:03.171Z,55.34
2019-05-19T01:21:08.837Z,54.49
2019-05-19T01:25:16.432Z,54.75
2019-05-19T01:29:22.119Z,54.53
2019-05-19T01:33:27.867Z,54.65
2019-05-19T01:37:33.764Z,54.82
2019-05-19T01:41:39.495Z,55.20
2019-05-19T01:45:45.166Z,55.01
2019-05-19T01:49:50.880Z,54.98
2019-05-19T01:53:56.582Z,55.32
2019-05-19T01:58:02.265Z,55.36
2019-05-19T02:02:07.934Z,56.01
2019-05-19T02:06:13.630Z,55.91
2019-05-19T02:10:20.021Z,55.45
2019-05-19T02:14:25.684Z,55.47
2019-05-19T02:18:31.367Z,55.32
2019-05-19T02:22:37.042Z,55.35
2019-05-19T02:26:42.801Z,55.59
2019-05-19T02:30:48.489Z,55.34
2019-05-19T02:34:54.239Z,55.85
2019-05-19T02:38:59.909Z,56.12
2019-05-19T02:43:06.207Z,56.19
2019-05-19T02:47:14.599Z,56.69
2019-05-19T02:51:22.674Z,57.03
2019-05-19T02:55:29.078Z,57.58
2019-05-19T02:59:36.126Z,57.35
2019-05-19T03:03:41.831Z,57.09
2019-05-19T03:07:48.442Z,57.24
2019-05-19T03:11:54.137Z,57.57
2019-05-19T03:15:59.796Z,56.62
2019-05-19T03:20:07.898Z,56.95
2019-05-19T03:24:13.652Z,56.99
2019-05-19T03:28:19.336Z,56.94
2019-05-19T03:32:32.575Z,56.59
2019-05-19T03:36:38.630Z,56.56
2019-05-19T03:40:44.371Z,56.20
2019-05-19T03:44:50.051Z,55.85
2019-05-19T03:48:55.989Z,56.19
2019-05-19T03:53:01.666Z,56.74
2019-05-19T03:57:07.376Z,57.46
2019-05-19T04:01:13.054Z,56.86
2019-05-19T04:05:18.924Z,56.41
2019-05-19T04:09:24.596Z,56.97
2019-05-19T04:13:30.295Z,57.12
2019-05-19T04:17:35.969Z,57.72
2019-05-19T04:21:48.740Z,57.09
2019-05-19T04:25:49.051Z,56.52
2019-05-19T04:29:54.741Z,56.10
2019-05-19T04:34:00.441Z,57.24
2019-05-19T04:38:06.133Z,57.15
2019-05-19T04:42:11.793Z,56.17
2019-05-19T04:46:17.531Z,55.91
2019-05-19T04:50:23.220Z,56.18
2019-05-19T04:54:28.881Z,56.44
2019-05-19T04:58:34.571Z,56.79
2019-05-19T05:02:40.241Z,55.75
2019-05-19T05:06:47.623Z,55.17
2019-05-19T05:10:53.678Z,55.11
2019-05-19T05:15:00.314Z,54.98
2019-05-19T05:19:06.008Z,55.33
2019-05-19T05:23:11.713Z,55.47
2019-05-19T05:27:17.405Z,55.01
2019-05-19T05:31:23.093Z,55.18
2019-05-19T05:35:28.776Z,54.47
2019-05-19T05:39:34.461Z,54.26
2019-05-19T05:43:40.155Z,54.19
2019-05-19T05:47:45.811Z,53.76
2019-05-19T05:51:51.878Z,54.02
2019-05-19T05:55:57.534Z,53.59
2019-05-19T06:00:03.764Z,52.91
2019-05-19T06:04:09.425Z,53.38
2019-05-19T06:08:15.340Z,52.76
2019-05-19T06:12:21.070Z,52.39
2019-05-19T06:16:27.014Z,51.98
2019-05-19T06:20:32.950Z,51.76
2019-05-19T06:24:38.632Z,52.14
2019-05-19T06:28:44.303Z,52.10
2019-05-19T06:32:51.944Z,51.77
2019-05-19T06:36:57.626Z,51.08
2019-05-19T06:41:03.387Z,51.72
2019-05-19T06:45:09.895Z,51.59
2019-05-19T06:49:15.584Z,52.72
2019-05-19T06:53:21.255Z,52.31
2019-05-19T06:57:26.975Z,51.84
2019-05-19T07:01:32.638Z,51.62
2019-05-19T07:05:39.311Z,50.80
2019-05-19T07:09:57.413Z,50.77
2019-05-19T07:13:52.392Z,49.34
2019-05-19T07:17:58.145Z,51.21
2019-05-19T07:22:04.409Z,51.35
2019-05-19T07:26:10.105Z,50.47
2019-05-19T07:30:16.388Z,49.15
2019-05-19T07:34:22.081Z,50.32
2019-05-19T07:38:27.782Z,49.27
2019-05-19T07:42:33.958Z,49.12
2019-05-19T07:46:39.689Z,48.24
2019-05-19T07:50:45.414Z,48.60
2019-05-19T07:54:51.106Z,48.07
2019-05-19T07:58:56.768Z,47.84
2019-05-19T08:03:02.476Z,47.22
2019-05-19T08:07:08.147Z,47.97
2019-05-19T08:11:14.109Z,48.50
2019-05-19T08:15:20.041Z,49.55
2019-05-19T08:19:25.710Z,49.29
2019-05-19T08:23:31.401Z,48.73
2019-05-19T08:27:37.105Z,48.07
2019-05-19T08:31:42.790Z,46.08
2019-05-19T08:35:48.484Z,45.48
2019-05-19T08:39:54.168Z,45.58
2019-05-19T08:43:59.848Z,43.99
2019-05-19T08:48:05.535Z,42.67
2019-05-19T08:52:11.201Z,43.68
2019-05-19T08:56:16.957Z,44.55
2019-05-19T09:00:22.710Z,42.83
2019-05-19T09:04:28.474Z,41.31
2019-05-19T09:08:34.190Z,39.44
2019-05-19T09:12:39.883Z,38.84
2019-05-19T09:16:56.111Z,39.42
2019-05-19T09:21:01.840Z,41.38
2019-05-19T09:25:08.830Z,41.20
2019-05-19T09:29:14.548Z,42.35
2019-05-19T09:33:20.430Z,43.14
2019-05-19T09:37:26.111Z,40.98
2019-05-19T09:41:31.807Z,40.19
2019-05-19T09:45:37.501Z,39.82
2019-05-19T09:49:43.197Z,41.64
2019-05-19T09:53:48.898Z,40.15
2019-05-19T09:57:54.575Z,38.64
2019-05-19T10:02:00.418Z,38.60
2019-05-19T10:06:06.156Z,38.03
2019-05-19T10:10:22.423Z,34.41
2019-05-19T10:14:28.151Z,35.35
2019-05-19T10:18:33.843Z,34.84
2019-05-19T10:22:39.670Z,35.48
2019-05-19T10:26:45.434Z,36.41
2019-05-19T10:30:51.196Z,37.96
2019-05-19T10:34:56.963Z,39.54
2019-05-19T10:39:02.703Z,39.64
2019-05-19T10:43:08.481Z,39.69
2019-05-19T10:47:14.191Z,39.55
2019-05-19T10:51:19.850Z,38.45
2019-05-19T10:55:36.182Z,36.00
2019-05-19T10:59:33.360Z,33.84
2019-05-19T11:03:40.114Z,31.16
2019-05-19T11:07:45.795Z,30.90
2019-05-19T11:11:51.522Z,32.79
2019-05-19T11:15:57.198Z,33.72
2019-05-19T11:20:02.983Z,33.69
2019-05-19T11:24:08.737Z,30.79
2019-05-19T11:28:15.407Z,28.69
2019-05-19T11:32:21.094Z,27.00
2019-05-19T11:36:27.929Z,30.70
2019-05-19T11:40:33.613Z,29.88
2019-05-19T11:44:39.316Z,27.34
2019-05-19T11:48:45.018Z,25.82
2019-05-19T11:52:50.704Z,26.42
2019-05-19T11:56:56.384Z,29.84
2019-05-19T12:01:02.167Z,30.40
2019-05-19T12:05:08.148Z,27.87
2019-05-19T12:09:13.839Z,30.61
2019-05-19T12:13:19.620Z,33.14
2019-05-19T12:17:25.324Z,33.10
2019-05-19T12:21:31.027Z,31.77
2019-05-19T12:25:37.675Z,33.64
2019-05-19T12:29:43.436Z,35.11
2019-05-19T12:33:51.983Z,31.56
2019-05-19T12:37:56.641Z,28.14
2019-05-19T12:42:03.348Z,26.37
2019-05-19T12:46:16.391Z,29.69
2019-05-19T12:50:17.756Z,29.46
2019-05-19T12:54:23.462Z,28.15
2019-05-19T12:58:29.127Z,30.70
2019-05-19T13:02:37.995Z,33.34
2019-05-19T13:06:42.353Z,31.19
2019-05-19T13:10:48.040Z,32.69
2019-05-19T13:14:53.728Z,34.37
2019-05-19T13:18:59.417Z,32.09
2019-05-19T13:23:05.105Z,29.93
2019-05-19T13:27:10.760Z,29.64
2019-05-19T13:31:16.464Z,31.99
2019-05-19T13:35:23.689Z,33.84
2019-05-19T13:39:29.367Z,35.61
2019-05-19T13:43:35.099Z,33.42
2019-05-19T13:47:40.808Z,33.96
2019-05-19T13:51:46.513Z,35.35
2019-05-19T13:55:52.213Z,36.78
2019-05-19T13:59:57.894Z,36.43
2019-05-19T14:04:03.576Z,35.05
2019-05-19T14:08:09.272Z,33.97
2019-05-19T14:12:14.966Z,33.71
2019-05-19T14:16:20.735Z,34.59
2019-05-19T14:20:26.414Z,35.59
2019-05-19T14:24:32.101Z,36.09
2019-05-19T14:28:37.812Z,36.94
2019-05-19T14:32:43.531Z,37.75
2019-05-19T14:36:49.229Z,37.71
2019-05-19T14:40:54.890Z,37.24
2019-05-19T14:45:00.596Z,35.67
2019-05-19T14:49:06.295Z,34.52
2019-05-19T14:53:12.000Z,34.53
2019-05-19T14:57:17.713Z,33.70
2019-05-19T15:01:23.426Z,32.85
2019-05-19T15:05:29.117Z,32.83
2019-05-19T15:09:34.810Z,34.63
2019-05-19T15:13:41.040Z,35.71
2019-05-19T15:17:46.736Z,37.07
2019-05-19T15:21:52.402Z,36.77
2019-05-19T15:25:58.090Z,36.26
2019-05-19T15:30:12.860Z,36.42
2019-05-19T15:34:13.371Z,35.69
2019-05-19T15:38:19.112Z,36.95
2019-05-19T15:42:25.828Z,36.71
2019-05-19T15:46:31.540Z,35.87
2019-05-19T15:50:37.212Z,36.19
2019-05-19T15:54:42.905Z,37.21
2019-05-19T15:58:49.145Z,38.32
2019-05-19T16:02:54.832Z,37.65
2019-05-19T16:07:00.809Z,37.34
2019-05-19T16:11:06.495Z,37.60
2019-05-19T16:15:13.310Z,37.55
2019-05-19T16:19:19.023Z,36.97
2019-05-19T16:23:24.783Z,37.80
2019-05-19T16:27:30.489Z,37.83
2019-05-19T16:31:36.175Z,39.31
2019-05-19T16:35:41.886Z,38.56
2019-05-19T16:39:47.569Z,42.43
2019-05-19T16:43:53.357Z,41.54
2019-05-19T16:47:59.120Z,44.92
2019-05-19T16:52:04.931Z,43.10
2019-05-19T16:56:10.592Z,44.84
2019-05-19T17:00:16.838Z,45.51
2019-05-19T17:04:22.590Z,45.67
2019-05-19T17:08:28.292Z,47.89
2019-05-19T17:12:33.987Z,46.29
2019-05-19T17:16:39.798Z,48.55
2019-05-19T17:20:45.547Z,48.43
2019-05-19T17:24:51.288Z,48.98
2019-05-19T17:29:00.620Z,47.24
2019-05-19T17:33:04.383Z,47.81
2019-05-19T17:37:10.088Z,47.85
2019-05-19T17:41:15.772Z,47.78
2019-05-19T17:45:22.308Z,49.23
2019-05-19T17:49:27.993Z,48.52
2019-05-19T17:53:34.196Z,51.31
2019-05-19T17:57:41.484Z,50.44
2019-05-19T18:01:47.230Z,51.86
2019-05-19T18:05:52.914Z,51.03
2019-05-19T18:09:58.601Z,52.30
2019-05-19T18:14:04.562Z,53.12
2019-05-19T18:18:10.265Z,50.62
2019-05-19T18:22:15.963Z,52.29
2019-05-19T18:26:21.687Z,53.72
2019-05-19T18:30:27.607Z,52.63
2019-05-19T18:34:33.512Z,53.34
2019-05-19T18:38:39.156Z,53.23
2019-05-19T18:42:44.894Z,52.62
2019-05-19T18:46:50.760Z,52.60
2019-05-19T18:50:56.438Z,53.73
2019-05-19T18:55:02.139Z,52.84
2019-05-19T18:59:07.819Z,53.62
2019-05-19T19:03:13.648Z,52.26
2019-05-19T19:07:19.350Z,51.64
2019-05-19T19:11:25.112Z,51.65
2019-05-19T19:15:30.957Z,51.39
2019-05-19T19:19:36.939Z,51.60
2019-05-19T19:23:42.706Z,51.58
2019-05-19T19:27:48.353Z,50.93
2019-05-19T19:31:54.058Z,51.01
2019-05-19T19:35:59.740Z,51.14
2019-05-19T19:40:08.039Z,50.61
2019-05-19T19:44:13.726Z,50.31
2019-05-19T19:48:19.426Z,50.66
2019-05-19T19:52:25.129Z,50.54
2019-05-19T19:56:30.860Z,50.24
2019-05-19T20:00:42.798Z,50.24
2019-05-19T20:04:48.476Z,50.78
2019-05-19T20:08:54.185Z,50.39
2019-05-19T20:12:59.993Z,50.45
2019-05-19T20:17:05.777Z,50.12
2019-05-19T20:21:12.274Z,50.61
2019-05-19T20:25:18.024Z,50.27
2019-05-19T20:29:24.450Z,50.63
2019-05-19T20:33:30.146Z,50.63
2019-05-19T20:37:35.900Z,50.61
2019-05-19T20:41:41.695Z,51.26
2019-05-19T20:45:47.390Z,51.91
2019-05-19T20:49:53.067Z,52.21
2019-05-19T20:53:58.776Z,53.07
2019-05-19T20:58:04.513Z,54.62
2019-05-19T21:02:10.208Z,54.14
2019-05-19T21:06:15.897Z,53.77
2019-05-19T21:10:23.219Z,54.24
2019-05-19T21:14:28.904Z,55.19
2019-05-19T21:18:34.588Z,60.44
2019-05-19T21:22:40.293Z,59.60
2019-05-19T21:26:45.981Z,61.55
2019-05-19T21:31:04.803Z,62.46
2019-05-19T21:35:00.000Z,62.67
2019-05-19T21:39:07.050Z,62.24
2019-05-19T21:43:12.751Z,63.90
2019-05-19T21:47:18.589Z,63.80
2019-05-19T21:51:24.270Z,64.39
2019-05-19T21:55:29.973Z,62.89
2019-05-19T21:59:35.651Z,63.16
2019-05-19T22:03:41.410Z,63.73
2019-05-19T22:07:52.836Z,66.41
2019-05-19T22:11:58.531Z,70.34
2019-05-19T22:16:13.077Z,72.19
2019-05-19T22:20:11.878Z,71.93
2019-05-19T22:24:19.320Z,70.37
2019-05-19T22:28:24.955Z,72.63
2019-05-19T22:32:30.626Z,72.39
2019-05-19T22:36:36.369Z,75.05
2019-05-19T22:40:42.050Z,73.89
2019-05-19T22:44:47.731Z,74.19
2019-05-19T22:48:53.416Z,70.93
2019-05-19T22:52:59.336Z,70.58
2019-05-19T22:57:05.043Z,65.87
2019-05-19T23:01:10.712Z,63.83
2019-05-19T23:05:16.904Z,60.01
2019-05-19T23:09:22.603Z,61.79
2019-05-19T23:13:28.298Z,62.97
2019-05-19T23:17:34.038Z,62.76
2019-05-19T23:21:39.727Z,62.12
2019-05-19T23:25:45.526Z,60.82
2019-05-19T23:29:51.239Z,64.61
2019-05-19T23:33:56.910Z,59.90
2019-05-19T23:38:02.589Z,62.54
2019-05-19T23:42:08.271Z,61.73
2019-05-19T23:46:14.021Z,56.07
2019-05-19T23:50:20.020Z,57.62
2019-05-19T23:54:25.746Z,56.53
2019-05-19T23:58:31.384Z,62.37
